createdAt,value
2023-05-10T00:01:27.449Z,101073.47
2023-05-10T00:03:54.112Z,101067.91
2023-05-10T00:06:21.269Z,101067.41
2023-05-10T00:08:49.301Z,101071.00
2023-05-10T00:11:15.854Z,101063.16
2023-05-10T00:13:42.627Z,101059.75
2023-05-10T00:16:11.549Z,101060.38
2023-05-10T00:18:38.110Z,101060.28
2023-05-10T00:21:05.720Z,101061.22
2023-05-10T00:23:32.362Z,101056.88
2023-05-10T00:25:58.874Z,101057.63
2023-05-10T00:28:26.057Z,101052.50
2023-05-10T00:30:52.556Z,101056.88
2023-05-10T00:33:19.680Z,101049.00
2023-05-10T00:35:46.283Z,101056.88
2023-05-10T00:38:12.845Z,101055.19
2023-05-10T00:40:39.609Z,101049.22
2023-05-10T00:43:06.313Z,101055.91
2023-05-10T00:45:34.084Z,101058.56
2023-05-10T00:48:03.543Z,101049.63
2023-05-10T00:50:32.511Z,101058.56
2023-05-10T00:53:00.447Z,101059.19
2023-05-10T00:55:27.338Z,101058.47
2023-05-10T00:57:54.553Z,101061.13
2023-05-10T01:00:21.345Z,101066.44
2023-05-10T01:02:48.176Z,101063.78
2023-05-10T01:05:14.914Z,101063.78
2023-05-10T01:07:42.093Z,101073.69
2023-05-10T01:10:10.029Z,101071.00
2023-05-10T01:12:43.990Z,101066.44
2023-05-10T01:15:13.853Z,101070.69
2023-05-10T01:17:43.517Z,101069.00
2023-05-10T01:20:11.903Z,101078.66
2023-05-10T01:23:23.501Z,101069.00
2023-05-10T01:26:26.820Z,101065.59
2023-05-10T01:29:12.145Z,101073.56
2023-05-10T01:31:58.170Z,101066.34
2023-05-10T01:35:06.356Z,101077.06
2023-05-10T01:37:57.000Z,101067.41
2023-05-10T01:40:43.946Z,101071.97
2023-05-10T01:43:20.730Z,101061.34
2023-05-10T01:46:14.838Z,101073.03
2023-05-10T01:48:48.377Z,101071.13
2023-05-10T01:51:21.269Z,101069.53
2023-05-10T01:53:49.729Z,101079.44
2023-05-10T01:56:18.233Z,101074.97
2023-05-10T01:58:48.565Z,101076.13
2023-05-10T02:01:16.674Z,101072.31
2023-05-10T02:03:43.929Z,101079.84
2023-05-10T02:06:13.906Z,101072.41
2023-05-10T02:08:42.434Z,101073.47
2023-05-10T02:11:10.433Z,101078.69
2023-05-10T02:13:40.299Z,101082.59
2023-05-10T02:16:08.306Z,101086.03
2023-05-10T02:18:36.968Z,101086.78
2023-05-10T02:21:04.616Z,101087.63
2023-05-10T02:23:32.193Z,101093.91
2023-05-10T02:25:59.780Z,101079.66
2023-05-10T02:28:28.199Z,101087.84
2023-05-10T02:30:55.936Z,101088.78
2023-05-10T02:33:23.442Z,101087.16
2023-05-10T02:35:51.944Z,101096.78
2023-05-10T02:38:21.838Z,101093.22
2023-05-10T02:40:49.294Z,101095.81
2023-05-10T02:43:18.104Z,101097.69
2023-05-10T02:45:48.349Z,101098.00
2023-05-10T02:48:15.573Z,101103.34
2023-05-10T02:50:52.189Z,101101.13
2023-05-10T02:53:32.999Z,101100.34
2023-05-10T02:56:05.263Z,101103.88
2023-05-10T02:58:31.913Z,101101.41
2023-05-10T03:00:58.458Z,101102.81
2023-05-10T03:03:25.058Z,101111.53
2023-05-10T03:05:54.798Z,101108.78
2023-05-10T03:08:21.307Z,101116.31
2023-05-10T03:11:07.442Z,101111.94
2023-05-10T03:13:45.025Z,101115.78
2023-05-10T03:16:16.904Z,101116.84
2023-05-10T03:18:57.770Z,101112.91
2023-05-10T03:21:30.647Z,101112.59
2023-05-10T03:24:08.012Z,101109.94
2023-05-10T03:26:37.665Z,101111.19
2023-05-10T03:29:06.033Z,101110.88
2023-05-10T03:31:33.150Z,101108.34
2023-05-10T03:33:59.666Z,101113.97
2023-05-10T03:36:26.154Z,101107.81
2023-05-10T03:38:53.472Z,101122.25
2023-05-10T03:41:20.057Z,101116.19
2023-05-10T03:43:46.620Z,101116.09
2023-05-10T03:46:13.063Z,101121.50
2023-05-10T03:48:42.406Z,101123.31
2023-05-10T03:51:09.150Z,101133.41
2023-05-10T03:53:35.841Z,101122.88
2023-05-10T03:56:02.343Z,101126.41
2023-05-10T03:58:28.897Z,101125.97
2023-05-10T04:00:57.262Z,101130.00
2023-05-10T04:03:24.178Z,101131.47
2023-05-10T04:05:59.770Z,101135.63
2023-05-10T04:08:26.761Z,101141.91
2023-05-10T04:10:53.378Z,101140.00
2023-05-10T04:13:20.024Z,101139.44
2023-05-10T04:15:46.629Z,101140.81
2023-05-10T04:18:13.156Z,101140.81
2023-05-10T04:20:39.925Z,101143.38
2023-05-10T04:23:06.632Z,101141.44
2023-05-10T04:25:36.720Z,101140.97
2023-05-10T04:28:03.279Z,101135.44
2023-05-10T04:30:30.272Z,101128.72
2023-05-10T04:32:57.271Z,101141.34
2023-05-10T04:35:23.917Z,101140.88
2023-05-10T04:37:50.596Z,101150.53
2023-05-10T04:40:20.015Z,101153.41
2023-05-10T04:42:46.544Z,101153.19
2023-05-10T04:45:13.494Z,101145.91
2023-05-10T04:47:40.383Z,101141.84
2023-05-10T04:50:07.636Z,101154.19
2023-05-10T04:52:34.431Z,101151.00
2023-05-10T04:55:01.034Z,101154.63
2023-05-10T04:57:27.509Z,101161.53
2023-05-10T04:59:54.109Z,101163.91
2023-05-10T05:02:20.674Z,101161.16
2023-05-10T05:04:47.440Z,101170.94
2023-05-10T05:07:14.192Z,101166.47
2023-05-10T05:09:40.842Z,101157.06
2023-05-10T05:12:07.917Z,101171.19
2023-05-10T05:14:34.751Z,101170.72
2023-05-10T05:17:02.215Z,101169.69
2023-05-10T05:19:28.803Z,101172.25
2023-05-10T05:21:55.820Z,101189.69
2023-05-10T05:24:22.280Z,101178.84
2023-05-10T05:26:52.251Z,101184.38
2023-05-10T05:29:18.928Z,101184.59
2023-05-10T05:31:45.719Z,101190.13
2023-05-10T05:34:12.466Z,101204.56
2023-05-10T05:36:41.533Z,101202.56
2023-05-10T05:39:08.865Z,101196.81
2023-05-10T05:41:36.774Z,101190.53
2023-05-10T05:44:03.379Z,101204.16
2023-05-10T05:46:30.237Z,101207.66
2023-05-10T05:48:57.188Z,101210.88
2023-05-10T05:51:23.872Z,101214.03
2023-05-10T05:53:50.381Z,101214.13
2023-05-10T05:56:18.445Z,101229.44
2023-05-10T05:58:45.994Z,101223.38
2023-05-10T06:01:12.512Z,101225.06
2023-05-10T06:03:39.396Z,101230.47
2023-05-10T06:06:06.749Z,101231.13
2023-05-10T06:08:35.054Z,101231.22
2023-05-10T06:11:03.511Z,101219.84
2023-05-10T06:13:33.128Z,101233.38
2023-05-10T06:16:00.145Z,101236.03
2023-05-10T06:18:26.614Z,101228.91
2023-05-10T06:20:53.095Z,101230.31
2023-05-10T06:23:19.679Z,101230.31
2023-05-10T06:25:46.185Z,101238.28
2023-05-10T06:28:15.324Z,101235.84
2023-05-10T06:30:41.828Z,101237.44
2023-05-10T06:33:08.498Z,101233.47
2023-05-10T06:35:35.124Z,101236.59
2023-05-10T06:38:01.619Z,101246.91
2023-05-10T06:40:28.409Z,101246.38
2023-05-10T06:42:54.972Z,101253.91
2023-05-10T06:45:22.000Z,101249.91
2023-05-10T06:47:48.469Z,101246.28
2023-05-10T06:50:15.503Z,101254.47
2023-05-10T06:52:42.132Z,101255.53
2023-05-10T06:55:09.790Z,101240.97
2023-05-10T06:57:36.534Z,101243.13
2023-05-10T07:00:05.966Z,101247.28
2023-05-10T07:02:32.673Z,101241.84
2023-05-10T07:05:02.351Z,101259.84
2023-05-10T07:07:30.138Z,101259.94
2023-05-10T07:09:58.454Z,101264.03
2023-05-10T07:12:25.604Z,101265.53
2023-05-10T07:14:53.571Z,101263.41
2023-05-10T07:17:20.578Z,101260.84
2023-05-10T07:19:47.399Z,101271.38
2023-05-10T07:22:14.131Z,101265.53
2023-05-10T07:24:41.668Z,101267.56
2023-05-10T07:27:08.589Z,101257.66
2023-05-10T07:29:35.144Z,101264.38
2023-05-10T07:32:02.291Z,101262.78
2023-05-10T07:34:32.229Z,101270.31
2023-05-10T07:37:02.339Z,101273.53
2023-05-10T07:39:29.834Z,101273.72
2023-05-10T07:41:57.137Z,101278.41
2023-05-10T07:44:24.231Z,101285.22
2023-05-10T07:46:51.789Z,101283.84
2023-05-10T07:49:18.531Z,101285.56
2023-05-10T07:51:45.999Z,101282.25
2023-05-10T07:54:13.678Z,101290.78
2023-05-10T07:56:46.466Z,101290.59
2023-05-10T07:59:17.212Z,101284.50
2023-05-10T08:01:44.576Z,101293.22
2023-05-10T08:04:11.698Z,101296.00
2023-05-10T08:06:38.680Z,101299.53
2023-05-10T08:09:05.578Z,101303.56
2023-05-10T08:11:34.336Z,101302.94
2023-05-10T08:14:01.754Z,101305.28
2023-05-10T08:16:31.094Z,101308.78
2023-05-10T08:18:57.969Z,101311.66
2023-05-10T08:21:25.931Z,101318.91
2023-05-10T08:23:52.758Z,101312.94
2023-05-10T08:26:19.453Z,101317.81
2023-05-10T08:28:46.036Z,101316.84
2023-05-10T08:31:13.124Z,101314.59
2023-05-10T08:33:40.903Z,101326.19
2023-05-10T08:36:09.323Z,101330.13
2023-05-10T08:38:36.104Z,101328.47
2023-05-10T08:41:03.560Z,101331.78
2023-05-10T08:43:30.935Z,101340.38
2023-05-10T08:46:02.053Z,101322.63
2023-05-10T08:48:30.245Z,101328.88
2023-05-10T08:51:01.589Z,101331.94
2023-05-10T08:53:32.250Z,101328.88
2023-05-10T08:56:00.611Z,101329.63
2023-05-10T08:58:27.857Z,101335.59
2023-05-10T09:00:54.705Z,101342.25
2023-05-10T09:03:24.244Z,101342.25
2023-05-10T09:05:50.917Z,101329.97
2023-05-10T09:08:18.630Z,101344.50
2023-05-10T09:10:48.182Z,101340.63
2023-05-10T09:13:16.874Z,101348.13
2023-05-10T09:15:45.908Z,101355.13
2023-05-10T09:18:13.166Z,101347.16
2023-05-10T09:20:40.022Z,101348.63
2023-05-10T09:23:07.389Z,101355.63
2023-05-10T09:25:38.310Z,101356.75
2023-05-10T09:28:09.900Z,101363.69
2023-05-10T09:30:37.530Z,101358.06
2023-05-10T09:33:05.374Z,101373.56
2023-05-10T09:35:34.702Z,101371.03
2023-05-10T09:38:08.187Z,101373.19
2023-05-10T09:40:36.282Z,101367.72
2023-05-10T09:43:03.240Z,101386.19
2023-05-10T09:45:37.810Z,101381.19
2023-05-10T09:48:08.829Z,101378.22
2023-05-10T09:50:36.281Z,101381.38
2023-05-10T09:53:05.120Z,101382.38
2023-05-10T09:55:45.982Z,101384.59
2023-05-10T09:58:14.416Z,101383.81
2023-05-10T10:00:43.280Z,101378.84
2023-05-10T10:03:18.483Z,101385.63
2023-05-10T10:05:46.215Z,101386.72
2023-05-10T10:08:13.869Z,101382.38
2023-05-10T10:10:47.732Z,101382.84
2023-05-10T10:13:15.082Z,101388.06
2023-05-10T10:15:44.244Z,101395.50
2023-05-10T10:18:15.451Z,101402.31
2023-05-10T10:20:42.136Z,101398.19
2023-05-10T10:23:09.189Z,101399.16
2023-05-10T10:25:36.668Z,101393.81
2023-05-10T10:28:13.444Z,101397.56
2023-05-10T10:30:44.722Z,101400.63
2023-05-10T10:33:48.594Z,101409.84
2023-05-10T10:36:16.596Z,101402.69
2023-05-10T10:38:42.969Z,101397.09
2023-05-10T10:41:27.940Z,101397.22
2023-05-10T10:44:35.286Z,101397.09
2023-05-10T10:47:24.143Z,101396.19
2023-05-10T10:50:03.121Z,101399.09
2023-05-10T10:52:36.729Z,101396.91
2023-05-10T10:55:10.365Z,101401.16
2023-05-10T10:57:53.295Z,101402.28
2023-05-10T11:00:34.138Z,101405.69
2023-05-10T11:03:07.410Z,101411.75
2023-05-10T11:05:34.406Z,101409.38
2023-05-10T11:08:07.425Z,101404.03
2023-05-10T11:10:34.252Z,101407.91
2023-05-10T11:13:07.391Z,101400.63
2023-05-10T11:15:39.562Z,101410.16
2023-05-10T11:18:25.447Z,101408.09
2023-05-10T11:20:55.047Z,101422.31
2023-05-10T11:23:22.290Z,101416.38
2023-05-10T11:25:50.191Z,101414.28
2023-05-10T11:28:20.796Z,101413.06
2023-05-10T11:30:48.500Z,101419.41
2023-05-10T11:33:20.412Z,101420.25
2023-05-10T11:35:47.266Z,101426.56
2023-05-10T11:38:15.001Z,101417.09
2023-05-10T11:40:42.300Z,101428.75
2023-05-10T11:43:11.588Z,101434.84
2023-05-10T11:45:39.428Z,101441.50
2023-05-10T11:48:06.183Z,101432.88
2023-05-10T11:50:33.719Z,101433.13
2023-05-10T11:53:00.368Z,101432.16
2023-05-10T11:55:27.127Z,101448.25
2023-05-10T11:57:54.881Z,101435.84
2023-05-10T12:00:22.382Z,101438.28
2023-05-10T12:02:49.593Z,101442.66
2023-05-10T12:05:16.926Z,101441.38
2023-05-10T12:07:43.825Z,101442.00
2023-05-10T12:10:19.319Z,101441.63
2023-05-10T12:12:48.468Z,101446.97
2023-05-10T12:15:22.100Z,101440.91
2023-05-10T12:17:49.655Z,101450.13
2023-05-10T12:20:21.166Z,101445.63
2023-05-10T12:22:53.475Z,101448.91
2023-05-10T12:25:21.862Z,101454.41
2023-05-10T12:27:53.987Z,101446.50
2023-05-10T12:30:32.188Z,101449.03
2023-05-10T12:33:04.909Z,101448.78
2023-05-10T12:35:32.408Z,101453.28
2023-05-10T12:38:00.366Z,101452.94
2023-05-10T12:40:27.363Z,101444.50
2023-05-10T12:42:53.920Z,101451.81
2023-05-10T12:45:20.739Z,101447.53
2023-05-10T12:47:47.407Z,101443.63
2023-05-10T12:50:14.768Z,101447.56
2023-05-10T12:52:41.442Z,101449.13
2023-05-10T12:55:08.651Z,101451.81
2023-05-10T12:57:35.491Z,101451.34
2023-05-10T13:00:02.096Z,101454.28
2023-05-10T13:02:29.025Z,101460.09
2023-05-10T13:04:55.695Z,101460.09
2023-05-10T13:07:22.281Z,101447.63
2023-05-10T13:09:48.875Z,101458.22
2023-05-10T13:12:15.499Z,101455.66
2023-05-10T13:14:43.167Z,101469.72
2023-05-10T13:17:11.065Z,101469.50
2023-05-10T13:19:38.145Z,101472.56
2023-05-10T13:22:05.193Z,101467.78
2023-05-10T13:24:31.842Z,101467.72
2023-05-10T13:26:59.452Z,101467.47
2023-05-10T13:29:26.363Z,101471.50
2023-05-10T13:31:53.307Z,101474.78
2023-05-10T13:34:21.773Z,101476.13
2023-05-10T13:36:49.783Z,101480.75
2023-05-10T13:39:17.115Z,101474.56
2023-05-10T13:41:43.657Z,101474.81
2023-05-10T13:44:10.329Z,101471.38
2023-05-10T13:46:37.191Z,101481.22
2023-05-10T13:49:03.785Z,101477.13
2023-05-10T13:51:30.483Z,101473.47
2023-05-10T13:53:57.421Z,101474.03
2023-05-10T13:56:24.059Z,101476.28
2023-05-10T13:58:50.616Z,101469.50
2023-05-10T14:01:17.422Z,101477.22
2023-05-10T14:03:44.469Z,101482.09
2023-05-10T14:06:11.611Z,101474.75
2023-05-10T14:08:41.134Z,101476.50
2023-05-10T14:11:07.908Z,101480.44
2023-05-10T14:13:34.906Z,101478.25
2023-05-10T14:16:01.859Z,101478.78
2023-05-10T14:18:29.585Z,101474.22
2023-05-10T14:20:56.395Z,101479.84
2023-05-10T14:23:26.995Z,101472.59
2023-05-10T14:25:53.915Z,101472.97
2023-05-10T14:28:21.813Z,101466.53
2023-05-10T14:30:49.173Z,101484.97
2023-05-10T14:33:15.855Z,101474.94
2023-05-10T14:35:42.375Z,101486.25
2023-05-10T14:38:09.184Z,101473.41
2023-05-10T14:40:35.861Z,101482.41
2023-05-10T14:43:02.605Z,101491.66
2023-05-10T14:45:29.225Z,101485.34
2023-05-10T14:47:55.950Z,101479.13
2023-05-10T14:50:36.060Z,101487.03
2023-05-10T14:53:03.826Z,101485.00
2023-05-10T14:55:30.291Z,101491.16
2023-05-10T14:57:57.404Z,101489.38
2023-05-10T15:00:24.008Z,101488.47
2023-05-10T15:02:51.477Z,101489.03
2023-05-10T15:05:18.710Z,101491.97
2023-05-10T15:07:46.151Z,101488.31
2023-05-10T15:10:12.787Z,101496.00
2023-05-10T15:12:39.578Z,101500.75
2023-05-10T15:15:07.448Z,101496.50
2023-05-10T15:17:34.761Z,101501.72
2023-05-10T15:20:04.300Z,101502.53
2023-05-10T15:22:34.345Z,101498.41
2023-05-10T15:25:01.132Z,101501.69
2023-05-10T15:27:27.701Z,101504.56
2023-05-10T15:29:54.346Z,101507.16
2023-05-10T15:32:21.008Z,101508.59
2023-05-10T15:34:47.833Z,101511.19
2023-05-10T15:37:14.407Z,101520.81
2023-05-10T15:39:40.893Z,101514.25
2023-05-10T15:42:07.453Z,101519.63
2023-05-10T15:44:35.966Z,101516.81
2023-05-10T15:47:03.841Z,101525.13
2023-05-10T15:49:30.744Z,101523.91
2023-05-10T15:51:57.264Z,101520.84
2023-05-10T15:54:23.938Z,101524.25
2023-05-10T15:56:50.439Z,101530.69
2023-05-10T15:59:17.009Z,101527.03
2023-05-10T16:01:43.578Z,101531.72
2023-05-10T16:04:10.129Z,101534.91
2023-05-10T16:06:38.756Z,101525.53
2023-05-10T16:09:05.547Z,101533.91
2023-05-10T16:11:32.137Z,101525.69
2023-05-10T16:13:58.587Z,101529.47
2023-05-10T16:16:25.113Z,101525.47
2023-05-10T16:18:52.836Z,101528.53
2023-05-10T16:21:19.756Z,101531.59
2023-05-10T16:23:46.718Z,101530.09
2023-05-10T16:26:13.243Z,101523.28
2023-05-10T16:28:40.953Z,101538.25
2023-05-10T16:31:07.629Z,101528.78
2023-05-10T16:33:34.497Z,101533.16
2023-05-10T16:36:01.371Z,101534.53
2023-05-10T16:38:28.296Z,101540.63
2023-05-10T16:40:55.312Z,101540.56
2023-05-10T16:43:22.883Z,101541.16
2023-05-10T16:45:50.622Z,101541.03
2023-05-10T16:48:17.678Z,101540.66
2023-05-10T16:50:44.873Z,101543.69
2023-05-10T16:53:11.771Z,101539.31
2023-05-10T16:55:38.527Z,101546.34
2023-05-10T16:58:06.622Z,101545.09
2023-05-10T17:00:33.137Z,101543.47
2023-05-10T17:02:59.783Z,101547.53
2023-05-10T17:05:26.490Z,101549.56
2023-05-10T17:07:53.121Z,101544.06
2023-05-10T17:10:19.805Z,101555.47
2023-05-10T17:12:46.408Z,101550.75
2023-05-10T17:15:13.073Z,101544.59
2023-05-10T17:17:39.883Z,101550.06
2023-05-10T17:20:07.494Z,101562.25
2023-05-10T17:22:35.099Z,101559.00
2023-05-10T17:25:01.862Z,101552.47
2023-05-10T17:27:30.462Z,101550.28
2023-05-10T17:29:59.377Z,101558.44
2023-05-10T17:32:26.606Z,101559.66
2023-05-10T17:34:53.137Z,101560.63
2023-05-10T17:37:19.923Z,101568.78
2023-05-10T17:39:46.707Z,101563.06
2023-05-10T17:42:13.797Z,101572.81
2023-05-10T17:44:40.437Z,101572.81
2023-05-10T17:47:06.904Z,101565.41
2023-05-10T17:49:33.946Z,101575.88
2023-05-10T17:52:00.397Z,101569.78
2023-05-10T17:54:27.216Z,101565.38
2023-05-10T17:56:53.992Z,101570.72
2023-05-10T17:59:21.516Z,101581.06
2023-05-10T18:01:48.004Z,101589.81
2023-05-10T18:04:14.525Z,101592.97
2023-05-10T18:06:41.801Z,101593.19
2023-05-10T18:09:08.550Z,101602.25
2023-05-10T18:11:36.378Z,101597.22
2023-05-10T18:14:02.884Z,101610.69
2023-05-10T18:16:29.689Z,101606.13
2023-05-10T18:18:56.629Z,101608.16
2023-05-10T18:21:23.180Z,101605.59
2023-05-10T18:23:50.105Z,101610.44
2023-05-10T18:26:18.439Z,101611.06
2023-05-10T18:28:45.151Z,101611.91
2023-05-10T18:31:12.629Z,101599.47
2023-05-10T18:33:39.383Z,101612.31
2023-05-10T18:36:06.017Z,101611.88
2023-05-10T18:38:32.738Z,101606.91
2023-05-10T18:41:00.670Z,101600.09
2023-05-10T18:43:27.315Z,101602.38
2023-05-10T18:45:53.890Z,101610.50
2023-05-10T18:48:20.454Z,101611.69
2023-05-10T18:50:47.274Z,101611.78
2023-05-10T18:53:14.297Z,101618.19
2023-05-10T18:55:40.940Z,101612.44
2023-05-10T18:58:07.605Z,101617.56
2023-05-10T19:00:34.244Z,101626.00
2023-05-10T19:03:00.956Z,101616.53
2023-05-10T19:05:30.558Z,101620.47
2023-05-10T19:07:57.593Z,101619.00
2023-05-10T19:10:24.341Z,101617.63
2023-05-10T19:12:51.546Z,101618.59
2023-05-10T19:15:20.802Z,101628.94
2023-05-10T19:17:48.187Z,101627.47
2023-05-10T19:20:14.799Z,101623.63
2023-05-10T19:22:54.232Z,101631.91
2023-05-10T19:25:29.404Z,101621.22
2023-05-10T19:27:59.450Z,101636.38
2023-05-10T19:30:26.708Z,101636.06
2023-05-10T19:32:53.707Z,101648.53
2023-05-10T19:35:20.556Z,101647.16
2023-05-10T19:37:50.873Z,101639.69
2023-05-10T19:40:18.755Z,101649.91
2023-05-10T19:42:45.406Z,101656.00
2023-05-10T19:45:12.469Z,101652.78
2023-05-10T19:47:39.226Z,101656.00
2023-05-10T19:50:07.102Z,101661.97
2023-05-10T19:52:33.874Z,101668.38
2023-05-10T19:55:00.675Z,101663.44
2023-05-10T19:57:27.626Z,101666.88
2023-05-10T19:59:55.281Z,101671.78
2023-05-10T20:02:22.125Z,101673.16
2023-05-10T20:04:48.782Z,101679.66
2023-05-10T20:07:15.551Z,101673.03
2023-05-10T20:09:44.094Z,101678.78
2023-05-10T20:12:10.856Z,101678.34
2023-05-10T20:14:38.592Z,101679.41
2023-05-10T20:17:05.742Z,101672.97
2023-05-10T20:19:32.296Z,101668.69
2023-05-10T20:21:58.900Z,101663.22
2023-05-10T20:24:25.670Z,101669.59
2023-05-10T20:26:52.534Z,101672.47
2023-05-10T20:29:19.052Z,101672.91
2023-05-10T20:31:45.672Z,101673.97
2023-05-10T20:34:12.184Z,101674.81
2023-05-10T20:36:39.052Z,101676.72
2023-05-10T20:39:05.588Z,101678.34
2023-05-10T20:41:32.338Z,101680.03
2023-05-10T20:43:58.811Z,101682.16
2023-05-10T20:46:27.107Z,101678.84
2023-05-10T20:48:54.362Z,101681.91
2023-05-10T20:51:20.960Z,101681.06
2023-05-10T20:53:47.497Z,101682.22
2023-05-10T20:56:14.215Z,101689.75
2023-05-10T20:58:40.979Z,101686.41
2023-05-10T21:01:07.491Z,101699.03
2023-05-10T21:03:34.021Z,101686.97
2023-05-10T21:06:00.836Z,101690.59
2023-05-10T21:08:27.581Z,101683.19
2023-05-10T21:10:54.155Z,101684.06
2023-05-10T21:13:20.741Z,101686.22
2023-05-10T21:15:47.255Z,101677.31
2023-05-10T21:18:14.031Z,101692.91
2023-05-10T21:20:41.813Z,101690.22
2023-05-10T21:23:08.375Z,101690.78
2023-05-10T21:25:35.652Z,101686.78
2023-05-10T21:28:02.139Z,101679.84
2023-05-10T21:30:28.641Z,101682.41
2023-05-10T21:32:59.642Z,101673.56
2023-05-10T21:35:26.512Z,101673.97
2023-05-10T21:37:54.956Z,101682.72
2023-05-10T21:40:27.036Z,101685.47
2023-05-10T21:42:53.669Z,101692.91
2023-05-10T21:45:20.706Z,101690.22
2023-05-10T21:47:47.547Z,101687.56
2023-05-10T21:50:14.114Z,101693.94
2023-05-10T21:52:40.595Z,101694.50
2023-05-10T21:55:08.670Z,101691.28
2023-05-10T21:57:35.498Z,101693.09
2023-05-10T22:00:02.176Z,101696.59
2023-05-10T22:02:29.553Z,101688.44
2023-05-10T22:04:56.288Z,101686.81
2023-05-10T22:07:22.831Z,101685.97
2023-05-10T22:09:49.307Z,101681.41
2023-05-10T22:12:15.893Z,101684.81
2023-05-10T22:14:42.495Z,101687.38
2023-05-10T22:17:09.471Z,101693.56
2023-05-10T22:19:36.260Z,101689.09
2023-05-10T22:22:02.947Z,101699.56
2023-05-10T22:24:30.234Z,101693.38
2023-05-10T22:26:56.730Z,101702.28
2023-05-10T22:29:27.773Z,101697.56
2023-05-10T22:31:58.268Z,101696.81
2023-05-10T22:34:25.143Z,101695.84
2023-05-10T22:36:51.843Z,101691.38
2023-05-10T22:39:18.520Z,101693.94
2023-05-10T22:41:45.242Z,101694.03
2023-05-10T22:44:12.119Z,101691.47
2023-05-10T22:46:38.664Z,101684.81
2023-05-10T22:49:06.209Z,101695.25
2023-05-10T22:51:32.859Z,101693.09
2023-05-10T22:53:59.458Z,101689.78
2023-05-10T22:56:27.185Z,101689.00
2023-05-10T22:58:53.946Z,101691.28
2023-05-10T23:01:20.635Z,101685.09
2023-05-10T23:03:47.199Z,101692.69
2023-05-10T23:06:13.668Z,101695.16
2023-05-10T23:08:40.462Z,101696.81
2023-05-10T23:11:07.108Z,101703.25
2023-05-10T23:13:33.729Z,101704.19
2023-05-10T23:16:06.036Z,101703.53
2023-05-10T23:18:33.361Z,101705.06
2023-05-10T23:21:00.691Z,101709.63
2023-05-10T23:23:27.573Z,101712.28
2023-05-10T23:25:55.253Z,101706.19
2023-05-10T23:28:21.769Z,101715.69
2023-05-10T23:30:55.610Z,101713.63
2023-05-10T23:33:22.869Z,101710.22
2023-05-10T23:35:49.726Z,101707.56
2023-05-10T23:38:16.554Z,101703.94
2023-05-10T23:40:43.170Z,101708.56
2023-05-10T23:43:10.191Z,101708.56
2023-05-10T23:45:36.982Z,101686.50
2023-05-10T23:48:03.623Z,101702.41
2023-05-10T23:50:30.127Z,101704.88
2023-05-10T23:52:56.570Z,101707.63
2023-05-10T23:55:23.164Z,101701.94
2023-05-10T23:57:49.681Z,101704.50
